Weather at U S Naval Medical Center San Diego Heliport

Public forecast

Using degrees Fahrenheit for public forecast. Weather courtesy of forecast.io.

Closest aviation weather report (METAR) to U S Naval Medical Center San Diego Heliport

Closest report is San Diego International Airport, 2.4 nm (4.4 km) WNW.

2024/07/21 06:54 (retrieved 7 minutes ago)

KSAN 210654Z 30003KT 10SM BKN007 BKN150 21/18 A2992 RMK AO2 T02060183

Closest aviation forecast (TAF) to U S Naval Medical Center San Diego Heliport

Closest forecast is San Diego International Airport, 2.4 nm (4.4 km) WNW.

2024/07/21 06:22 (retrieved 39 minutes ago)

TAF KSAN 210520Z 2106/2212 29005KT P6SM SCT007 SCT100 FM210700 VRB03KT 5SM BR BKN006 FM210900 VRB03KT 3SM BR OVC004 FM211700 VRB04KT P6SM SCT009 FM211800 24009KT P6SM FEW012